createdAt,value
2018-07-08T00:00:42.364Z,99.90
2018-07-08T00:03:15.051Z,99.90
2018-07-08T00:05:43.375Z,99.90
2018-07-08T00:08:12.408Z,99.90
2018-07-08T00:15:40.976Z,99.90
2018-07-08T00:18:09.413Z,99.90
2018-07-08T00:20:37.660Z,99.90
2018-07-08T00:23:07.228Z,99.90
2018-07-08T00:25:37.180Z,99.90
2018-07-08T00:28:05.417Z,99.90
2018-07-08T00:30:34.043Z,99.90
2018-07-08T00:33:02.548Z,99.90
2018-07-08T00:35:31.064Z,99.90
2018-07-08T00:37:59.778Z,99.90
2018-07-08T00:40:28.047Z,99.90
2018-07-08T00:42:56.287Z,99.90
2018-07-08T00:45:24.872Z,99.90
2018-07-08T00:47:53.924Z,99.90
2018-07-08T00:50:22.252Z,99.90
2018-07-08T00:52:51.184Z,99.90
2018-07-08T00:55:20.227Z,99.90
2018-07-08T00:57:48.502Z,99.90
2018-07-08T01:00:22.836Z,99.90
2018-07-08T01:02:51.135Z,99.90
2018-07-08T01:05:19.410Z,99.90
2018-07-08T01:07:47.944Z,99.90
2018-07-08T01:10:16.184Z,99.90
2018-07-08T01:12:44.441Z,99.90
2018-07-08T01:15:12.992Z,99.90
2018-07-08T01:17:41.279Z,99.90
2018-07-08T01:20:09.511Z,99.90
2018-07-08T01:22:38.178Z,99.90
2018-07-08T01:25:09.488Z,99.90
2018-07-08T01:27:38.016Z,99.90
2018-07-08T01:30:06.529Z,99.90
2018-07-08T01:32:35.332Z,99.90
2018-07-08T01:35:03.590Z,99.90
2018-07-08T01:37:32.800Z,99.90
2018-07-08T01:40:01.250Z,99.90
2018-07-08T01:42:30.370Z,99.90
2018-07-08T01:44:59.336Z,99.90
2018-07-08T01:47:27.751Z,99.90
2018-07-08T01:49:56.021Z,99.90
2018-07-08T01:52:25.700Z,99.90
2018-07-08T01:54:54.420Z,99.90
2018-07-08T01:57:23.311Z,99.90
2018-07-08T01:59:52.863Z,99.90
2018-07-08T02:02:21.840Z,99.90
2018-07-08T02:04:50.860Z,99.90
2018-07-08T02:07:19.440Z,99.90
2018-07-08T02:09:48.176Z,99.90
2018-07-08T02:12:16.757Z,99.90
2018-07-08T02:14:45.647Z,99.90
2018-07-08T02:17:13.908Z,99.90
2018-07-08T02:19:42.198Z,99.90
2018-07-08T02:22:10.483Z,99.90
2018-07-08T02:24:38.798Z,99.90
2018-07-08T02:27:07.071Z,99.90
2018-07-08T02:29:36.947Z,99.90
2018-07-08T02:32:05.271Z,99.90
2018-07-08T02:34:37.115Z,99.90
2018-07-08T02:37:06.191Z,99.90
2018-07-08T02:39:34.541Z,99.90
2018-07-08T02:42:03.015Z,99.90
2018-07-08T02:44:32.148Z,99.90
2018-07-08T02:47:00.985Z,99.90
2018-07-08T02:49:30.185Z,99.90
2018-07-08T02:52:00.717Z,99.90
2018-07-08T02:54:29.611Z,99.90
2018-07-08T02:57:03.401Z,99.90
2018-07-08T02:59:35.600Z,99.90
2018-07-08T03:02:03.913Z,99.90
2018-07-08T03:04:38.272Z,99.90
2018-07-08T03:07:12.449Z,99.90
2018-07-08T03:09:47.050Z,99.90
2018-07-08T03:12:16.676Z,99.90
2018-07-08T03:14:44.949Z,99.90
2018-07-08T03:17:15.435Z,99.90
2018-07-08T03:19:44.042Z,99.90
2018-07-08T03:22:14.829Z,99.90
2018-07-08T03:24:43.336Z,99.90
2018-07-08T03:27:12.734Z,99.90
2018-07-08T03:29:41.994Z,99.90
2018-07-08T03:32:10.256Z,99.90
2018-07-08T03:34:39.270Z,99.90
2018-07-08T03:37:07.627Z,99.90
2018-07-08T03:39:38.467Z,99.90
2018-07-08T03:42:14.493Z,99.90
2018-07-08T03:44:43.490Z,99.90
2018-07-08T03:47:11.760Z,99.90
2018-07-08T03:49:39.991Z,99.90
2018-07-08T03:52:08.931Z,99.90
2018-07-08T03:54:39.662Z,99.90
2018-07-08T03:57:08.086Z,99.90
2018-07-08T03:59:36.415Z,99.90
2018-07-08T04:02:05.170Z,99.90
2018-07-08T04:04:33.495Z,99.90
2018-07-08T04:07:01.730Z,99.90
2018-07-08T04:09:30.455Z,99.90
2018-07-08T04:13:29.664Z,99.90
2018-07-08T04:15:58.356Z,99.90
2018-07-08T04:18:26.593Z,99.90
2018-07-08T04:20:54.836Z,99.90
2018-07-08T04:23:23.474Z,99.90
2018-07-08T04:25:52.224Z,99.90
2018-07-08T04:28:20.501Z,99.90
2018-07-08T04:30:49.046Z,99.90
2018-07-08T04:33:17.323Z,99.90
2018-07-08T04:35:45.590Z,99.90
2018-07-08T04:38:14.180Z,99.90
2018-07-08T04:40:42.804Z,99.90
2018-07-08T04:43:11.180Z,99.90
2018-07-08T04:45:39.881Z,99.90
2018-07-08T04:48:08.521Z,99.90
2018-07-08T04:50:37.019Z,99.90
2018-07-08T04:53:05.590Z,99.90
2018-07-08T04:55:33.981Z,99.90
2018-07-08T04:58:02.361Z,99.90
2018-07-08T05:00:31.843Z,99.90
2018-07-08T05:03:00.146Z,99.90
2018-07-08T05:05:28.403Z,99.90
2018-07-08T05:07:57.114Z,99.90
2018-07-08T05:10:25.632Z,99.90
2018-07-08T05:12:53.944Z,99.90
2018-07-08T05:15:22.667Z,99.90
2018-07-08T05:17:50.955Z,99.90
2018-07-08T05:20:19.264Z,99.90
2018-07-08T05:25:41.785Z,99.90
2018-07-08T05:28:11.353Z,99.90
2018-07-08T05:30:39.686Z,99.90
2018-07-08T05:33:08.005Z,99.90
2018-07-08T05:35:36.619Z,99.90
2018-07-08T05:38:04.864Z,99.90
2018-07-08T05:40:33.149Z,99.90
2018-07-08T05:43:02.501Z,99.90
2018-07-08T05:45:32.177Z,99.90
2018-07-08T05:48:01.111Z,99.90
2018-07-08T05:50:29.853Z,99.90
2018-07-08T05:52:58.084Z,99.90
2018-07-08T05:55:26.379Z,99.90
2018-07-08T05:57:55.108Z,99.90
2018-07-08T06:05:19.648Z,99.90
2018-07-08T06:07:48.212Z,99.90
2018-07-08T06:10:16.575Z,99.90
2018-07-08T06:12:45.105Z,99.90
2018-07-08T06:15:13.347Z,99.90
2018-07-08T06:17:42.444Z,99.90
2018-07-08T06:22:40.170Z,99.90
2018-07-08T06:25:08.632Z,99.90
2018-07-08T06:27:37.195Z,99.90
2018-07-08T06:30:05.591Z,99.90
2018-07-08T06:32:34.237Z,99.90
2018-07-08T06:40:45.924Z,99.90
2018-07-08T06:43:14.189Z,99.90
2018-07-08T06:45:42.469Z,99.90
2018-07-08T06:48:11.075Z,99.90
2018-07-08T06:50:39.678Z,99.90
2018-07-08T06:53:07.923Z,99.90
2018-07-08T06:55:37.130Z,99.90
2018-07-08T06:58:05.373Z,99.90
2018-07-08T07:00:33.613Z,99.90
2018-07-08T07:03:03.891Z,99.90
2018-07-08T07:05:32.323Z,99.90
2018-07-08T07:08:00.761Z,99.90
2018-07-08T07:10:30.176Z,99.90
2018-07-08T07:12:58.468Z,99.90
2018-07-08T07:15:26.948Z,99.90
2018-07-08T07:17:55.504Z,99.90
2018-07-08T07:20:23.783Z,99.90
2018-07-08T07:22:52.058Z,99.90
2018-07-08T07:25:20.931Z,99.90
2018-07-08T07:27:49.342Z,99.90
2018-07-08T07:30:17.649Z,99.90
2018-07-08T07:32:46.296Z,99.90
2018-07-08T07:35:14.541Z,99.90
2018-07-08T07:37:42.809Z,99.90
2018-07-08T07:40:11.433Z,99.90
2018-07-08T07:42:39.730Z,99.90
2018-07-08T07:45:08.040Z,99.90
2018-07-08T07:47:36.908Z,99.90
2018-07-08T07:52:33.015Z,99.90
2018-07-08T07:55:04.356Z,99.90
2018-07-08T07:57:32.683Z,99.90
2018-07-08T08:00:01.502Z,99.90
2018-07-08T08:02:30.444Z,99.90
2018-07-08T08:04:58.730Z,99.90
2018-07-08T08:07:27.002Z,99.90
2018-07-08T08:09:55.820Z,99.90
2018-07-08T08:12:28.525Z,99.90
2018-07-08T08:15:00.552Z,99.90
2018-07-08T08:17:29.055Z,99.90
2018-07-08T08:23:06.387Z,99.90
2018-07-08T08:25:34.976Z,99.90
2018-07-08T08:28:03.740Z,99.90
2018-07-08T08:30:31.989Z,99.90
2018-07-08T08:35:28.460Z,99.90
2018-07-08T08:37:59.208Z,99.90
2018-07-08T08:40:29.494Z,99.90
2018-07-08T08:42:58.129Z,99.90
2018-07-08T08:45:27.811Z,99.90
2018-07-08T08:47:56.092Z,99.90
2018-07-08T08:50:24.704Z,99.90
2018-07-08T08:52:53.030Z,99.90
2018-07-08T08:55:21.414Z,99.90
2018-07-08T08:57:50.216Z,99.90
2018-07-08T09:00:19.510Z,99.90
2018-07-08T09:02:47.788Z,99.90
2018-07-08T09:10:12.432Z,99.90
2018-07-08T09:12:42.919Z,98.20
2018-07-08T09:20:07.408Z,91.80
2018-07-08T09:22:36.307Z,90.80
2018-07-08T09:25:05.074Z,91.00
2018-07-08T09:27:33.770Z,92.60
2018-07-08T09:30:02.247Z,90.80
2018-07-08T09:32:30.647Z,94.30
2018-07-08T09:34:59.412Z,95.50
2018-07-08T09:38:57.335Z,96.10
2018-07-08T09:41:26.201Z,96.50
2018-07-08T09:43:54.719Z,94.50
2018-07-08T09:46:22.992Z,94.80
2018-07-08T09:48:51.712Z,93.60
2018-07-08T09:51:19.976Z,94.70
2018-07-08T09:53:48.485Z,97.40
2018-07-08T09:56:20.111Z,96.70
2018-07-08T09:58:49.401Z,99.90
2018-07-08T10:01:18.702Z,99.90
2018-07-08T10:03:57.541Z,99.90
2018-07-08T10:06:26.684Z,99.10
2018-07-08T10:08:54.956Z,99.90
2018-07-08T10:11:24.730Z,99.90
2018-07-08T10:13:53.516Z,99.90
2018-07-08T10:16:21.725Z,99.40
2018-07-08T10:18:50.062Z,99.90
2018-07-08T10:21:18.703Z,99.90
2018-07-08T10:23:46.984Z,97.90
2018-07-08T10:26:19.290Z,99.40
2018-07-08T10:28:48.182Z,99.90
2018-07-08T10:31:16.456Z,99.10
2018-07-08T10:33:50.224Z,99.90
2018-07-08T10:36:18.881Z,99.80
2018-07-08T10:38:47.157Z,99.20
2018-07-08T10:41:15.415Z,99.90
2018-07-08T10:43:56.707Z,99.90
2018-07-08T10:46:25.042Z,99.90
2018-07-08T10:48:55.132Z,99.90
2018-07-08T10:51:24.780Z,99.90
2018-07-08T10:53:53.262Z,99.90
2018-07-08T10:56:21.696Z,99.90
2018-07-08T10:58:50.313Z,99.80
2018-07-08T11:01:18.601Z,99.90
2018-07-08T11:03:47.233Z,99.90
2018-07-08T11:06:17.296Z,99.90
2018-07-08T11:08:45.858Z,99.90
2018-07-08T11:11:14.424Z,99.90
2018-07-08T11:13:43.113Z,99.90
2018-07-08T11:16:11.498Z,99.90
2018-07-08T11:18:39.834Z,99.90
2018-07-08T11:21:09.381Z,99.90
2018-07-08T11:23:37.816Z,99.90
2018-07-08T11:26:06.288Z,99.90
2018-07-08T11:28:34.942Z,99.20
2018-07-08T11:31:03.341Z,99.90
2018-07-08T11:33:31.679Z,99.90
2018-07-08T11:36:00.473Z,99.90
2018-07-08T11:38:28.750Z,99.90
2018-07-08T11:40:57.128Z,99.90
2018-07-08T11:43:25.944Z,99.90
2018-07-08T11:45:54.260Z,99.90
2018-07-08T11:48:22.595Z,99.90
2018-07-08T11:50:51.362Z,99.90
2018-07-08T11:53:19.673Z,99.90
2018-07-08T11:55:48.021Z,99.90
2018-07-08T11:58:16.643Z,99.90
2018-07-08T12:00:44.904Z,99.90
2018-07-08T12:03:14.995Z,99.90
2018-07-08T12:05:43.639Z,99.90
2018-07-08T12:08:12.660Z,99.90
2018-07-08T12:10:41.130Z,99.90
2018-07-08T12:13:09.796Z,99.90
2018-07-08T12:15:39.308Z,99.90
2018-07-08T12:18:07.866Z,99.90
2018-07-08T12:20:36.970Z,99.90
2018-07-08T12:23:05.464Z,99.90
2018-07-08T12:25:34.041Z,99.90
2018-07-08T12:28:03.027Z,99.90
2018-07-08T12:30:31.315Z,99.90
2018-07-08T12:33:00.447Z,99.90
2018-07-08T12:40:25.137Z,99.90
2018-07-08T12:42:54.379Z,99.90
2018-07-08T12:45:22.830Z,99.90
2018-07-08T12:47:51.104Z,99.90
2018-07-08T12:50:33.572Z,99.90
2018-07-08T12:53:05.964Z,99.90
2018-07-08T12:55:34.620Z,99.90
2018-07-08T12:58:02.896Z,99.90
2018-07-08T13:00:31.464Z,99.90
2018-07-08T13:02:59.961Z,99.90
2018-07-08T13:05:28.336Z,99.90
2018-07-08T13:07:56.702Z,99.90
2018-07-08T13:10:25.369Z,99.90
2018-07-08T13:12:53.711Z,99.90
2018-07-08T13:15:31.151Z,99.90
2018-07-08T13:18:32.470Z,99.90
2018-07-08T13:21:04.835Z,99.90
2018-07-08T13:23:33.705Z,99.90
2018-07-08T13:26:03.429Z,99.90
2018-07-08T13:28:33.917Z,99.90
2018-07-08T13:31:03.624Z,99.90
2018-07-08T13:33:32.971Z,99.90
2018-07-08T13:36:04.345Z,99.90
2018-07-08T13:38:35.451Z,99.90
2018-07-08T13:41:04.039Z,99.50
2018-07-08T13:43:32.316Z,99.90
2018-07-08T13:46:01.196Z,99.00
2018-07-08T13:48:29.655Z,99.10
2018-07-08T13:53:26.434Z,97.60
2018-07-08T13:55:56.167Z,99.90
2018-07-08T13:58:24.407Z,98.60
2018-07-08T14:00:53.129Z,99.30
2018-07-08T14:03:21.326Z,97.40
2018-07-08T14:05:49.771Z,98.20
2018-07-08T14:08:19.290Z,97.20
2018-07-08T14:13:16.551Z,98.70
2018-07-08T14:15:44.844Z,98.90
2018-07-08T14:18:13.115Z,99.00
2018-07-08T14:20:41.569Z,95.80
2018-07-08T14:23:10.506Z,96.10
2018-07-08T14:25:38.795Z,97.40
2018-07-08T14:28:07.437Z,98.30
2018-07-08T14:30:37.735Z,98.50
2018-07-08T14:33:06.509Z,98.80
2018-07-08T14:35:34.760Z,99.90
2018-07-08T14:38:04.835Z,99.10
2018-07-08T14:40:33.414Z,99.00
2018-07-08T14:43:01.687Z,99.90
2018-07-08T14:45:30.388Z,97.90
2018-07-08T14:47:58.968Z,98.10
2018-07-08T14:50:27.780Z,97.50
2018-07-08T14:52:56.561Z,98.10
2018-07-08T14:55:32.475Z,98.50
2018-07-08T14:58:27.585Z,97.50
2018-07-08T15:01:08.078Z,98.00
2018-07-08T15:03:36.651Z,98.80
2018-07-08T15:06:06.533Z,98.60
2018-07-08T15:08:34.820Z,98.40
2018-07-08T15:11:19.936Z,98.70
2018-07-08T15:13:59.094Z,99.00
2018-07-08T15:16:37.465Z,97.10
2018-07-08T15:19:06.173Z,98.70
2018-07-08T15:21:34.513Z,98.70
2018-07-08T15:24:05.381Z,99.60
2018-07-08T15:26:35.172Z,99.90
2018-07-08T15:29:03.409Z,99.90
2018-07-08T15:31:32.085Z,99.80
2018-07-08T15:34:00.530Z,99.90
2018-07-08T15:36:28.889Z,99.90
2018-07-08T15:39:04.003Z,99.40
2018-07-08T15:41:35.511Z,99.90
2018-07-08T15:44:09.029Z,98.80
2018-07-08T15:46:44.824Z,97.50
2018-07-08T15:49:14.451Z,99.30
2018-07-08T15:51:42.733Z,97.90
2018-07-08T15:54:11.003Z,97.30
2018-07-08T15:56:39.712Z,99.30
2018-07-08T15:59:10.980Z,98.20
2018-07-08T16:01:40.561Z,98.10
2018-07-08T16:04:09.608Z,97.90
2018-07-08T16:06:39.170Z,99.10
2018-07-08T16:09:07.480Z,98.20
2018-07-08T16:11:36.267Z,96.90
2018-07-08T16:14:04.780Z,98.30
2018-07-08T16:16:33.252Z,98.00
2018-07-08T16:19:02.532Z,99.90
2018-07-08T16:21:32.419Z,99.00
2018-07-08T16:24:00.648Z,99.90
2018-07-08T16:26:29.355Z,99.90
2018-07-08T16:28:57.653Z,99.90
2018-07-08T16:31:26.099Z,99.90
2018-07-08T16:33:54.923Z,99.80
2018-07-08T16:36:23.265Z,99.90
2018-07-08T16:38:51.627Z,98.40
2018-07-08T16:41:20.309Z,99.90
2018-07-08T16:43:49.323Z,99.00
2018-07-08T16:46:18.622Z,99.90
2018-07-08T16:48:47.439Z,99.90
2018-07-08T16:51:15.820Z,99.90
2018-07-08T16:53:44.078Z,99.90
2018-07-08T16:56:12.822Z,99.90
2018-07-08T16:58:44.502Z,99.90
2018-07-08T17:03:41.487Z,99.90
2018-07-08T17:06:09.856Z,99.90
2018-07-08T17:08:38.533Z,99.90
2018-07-08T17:11:07.086Z,99.90
2018-07-08T17:13:35.389Z,99.90
2018-07-08T17:16:10.842Z,99.90
2018-07-08T17:18:40.058Z,99.90
2018-07-08T17:21:08.462Z,99.90
2018-07-08T17:23:41.251Z,99.90
2018-07-08T17:26:13.364Z,99.90
2018-07-08T17:28:42.321Z,99.90
2018-07-08T17:31:10.720Z,99.90
2018-07-08T17:33:39.454Z,99.90
2018-07-08T17:36:08.125Z,99.90
2018-07-08T17:38:36.423Z,99.90
2018-07-08T17:41:05.306Z,99.90
2018-07-08T17:43:34.104Z,99.90
2018-07-08T17:46:02.553Z,99.90
2018-07-08T17:48:33.031Z,99.90
2018-07-08T17:51:01.957Z,99.90
2018-07-08T17:53:30.257Z,99.90
2018-07-08T17:55:58.557Z,99.90
2018-07-08T17:58:26.897Z,99.90
2018-07-08T18:00:55.169Z,99.90
2018-07-08T18:03:23.480Z,99.90
2018-07-08T18:05:53.011Z,99.90
2018-07-08T18:08:21.641Z,99.90
2018-07-08T18:10:50.145Z,99.90
2018-07-08T18:13:18.756Z,99.90
2018-07-08T18:15:48.257Z,99.90
2018-07-08T18:18:16.598Z,99.90
2018-07-08T18:20:45.619Z,99.90
2018-07-08T18:23:13.996Z,99.90
2018-07-08T18:25:42.836Z,99.90
2018-07-08T18:28:11.594Z,99.90
2018-07-08T18:30:43.458Z,99.90
2018-07-08T18:33:12.140Z,99.90
2018-07-08T18:35:40.410Z,99.90
2018-07-08T18:38:08.801Z,99.90
2018-07-08T18:40:37.550Z,99.90
2018-07-08T18:43:05.831Z,99.90
2018-07-08T18:45:34.135Z,99.90
2018-07-08T18:48:02.916Z,99.90
2018-07-08T18:50:31.979Z,99.90
2018-07-08T18:53:00.270Z,99.90
2018-07-08T18:55:28.921Z,99.90
2018-07-08T18:57:57.541Z,99.90
2018-07-08T19:00:28.768Z,99.90
2018-07-08T19:02:58.082Z,99.90
2018-07-08T19:05:27.311Z,99.90
2018-07-08T19:07:56.001Z,99.90
2018-07-08T19:10:24.673Z,99.90
2018-07-08T19:12:53.017Z,99.90
2018-07-08T19:15:21.606Z,99.90
2018-07-08T19:17:54.735Z,99.90
2018-07-08T19:20:22.975Z,99.90
2018-07-08T19:22:51.281Z,99.90
2018-07-08T19:25:20.316Z,99.90
2018-07-08T19:27:48.561Z,99.90
2018-07-08T19:30:16.862Z,99.90
2018-07-08T19:32:45.452Z,99.90
2018-07-08T19:35:13.758Z,99.90
2018-07-08T19:37:42.009Z,99.90
2018-07-08T19:40:10.602Z,99.90
2018-07-08T19:42:39.124Z,99.90
2018-07-08T19:45:08.228Z,99.90
2018-07-08T19:50:46.156Z,99.90
2018-07-08T19:53:15.283Z,99.90
2018-07-08T19:55:44.092Z,99.90
2018-07-08T19:58:12.380Z,99.90
2018-07-08T20:00:41.681Z,99.90
2018-07-08T20:03:09.961Z,99.90
2018-07-08T20:05:38.267Z,99.90
2018-07-08T20:08:06.909Z,99.90
2018-07-08T20:10:35.209Z,99.90
2018-07-08T20:13:03.516Z,99.90
2018-07-08T20:15:32.899Z,99.90
2018-07-08T20:18:01.384Z,99.90
2018-07-08T20:20:30.010Z,99.90
2018-07-08T20:23:13.247Z,99.90
2018-07-08T20:25:42.490Z,99.90
2018-07-08T20:28:10.850Z,99.90
2018-07-08T20:30:39.512Z,99.90
2018-07-08T20:33:07.820Z,99.90
2018-07-08T20:35:36.112Z,99.90
2018-07-08T20:38:05.067Z,99.90
2018-07-08T20:40:34.048Z,99.90
2018-07-08T20:43:03.533Z,99.90
2018-07-08T20:45:31.849Z,99.90
2018-07-08T20:48:00.167Z,99.90
2018-07-08T20:50:28.698Z,99.90
2018-07-08T20:52:57.264Z,99.90
2018-07-08T20:55:25.622Z,99.90
2018-07-08T20:57:53.893Z,99.90
2018-07-08T21:00:22.485Z,99.90
2018-07-08T21:02:51.236Z,99.90
2018-07-08T21:05:20.215Z,99.90
2018-07-08T21:07:48.894Z,99.90
2018-07-08T21:10:17.134Z,99.90
2018-07-08T21:12:45.443Z,99.90
2018-07-08T21:15:13.978Z,99.90
2018-07-08T21:17:42.232Z,99.90
2018-07-08T21:20:10.496Z,99.90
2018-07-08T21:22:39.255Z,99.90
2018-07-08T21:25:07.939Z,99.90
2018-07-08T21:27:36.494Z,99.90
2018-07-08T21:30:05.079Z,99.90
2018-07-08T21:32:33.318Z,99.90
2018-07-08T21:35:01.554Z,99.90
2018-07-08T21:37:30.208Z,99.90
2018-07-08T21:39:58.439Z,99.90
2018-07-08T21:42:26.680Z,99.90
2018-07-08T21:44:55.351Z,99.90
2018-07-08T21:47:32.796Z,99.90
2018-07-08T21:52:29.088Z,99.90
2018-07-08T21:54:57.341Z,99.90
2018-07-08T21:57:26.367Z,99.90
2018-07-08T21:59:54.931Z,99.90
2018-07-08T22:02:23.268Z,99.90
2018-07-08T22:04:52.045Z,99.90
2018-07-08T22:07:28.447Z,99.90
2018-07-08T22:09:56.742Z,99.90
2018-07-08T22:12:25.420Z,99.90
2018-07-08T22:14:53.729Z,99.90
2018-07-08T22:17:22.296Z,99.90
2018-07-08T22:19:50.864Z,99.90
2018-07-08T22:22:19.116Z,99.90
2018-07-08T22:24:47.361Z,99.90
2018-07-08T22:27:16.090Z,99.90
2018-07-08T22:29:44.329Z,99.90
2018-07-08T22:32:12.654Z,99.90
2018-07-08T22:34:41.231Z,99.90
2018-07-08T22:37:09.467Z,99.90
2018-07-08T22:39:37.756Z,99.90
2018-07-08T22:42:06.268Z,99.90
2018-07-08T22:44:34.583Z,99.90
2018-07-08T22:47:02.823Z,99.90
2018-07-08T22:49:31.504Z,99.90
2018-07-08T22:51:59.812Z,99.90
2018-07-08T22:54:28.051Z,99.90
2018-07-08T22:56:56.756Z,99.90
2018-07-08T22:59:25.091Z,99.90
2018-07-08T23:01:59.026Z,99.90
2018-07-08T23:04:27.594Z,99.90
2018-07-08T23:09:24.121Z,99.90
2018-07-08T23:11:52.811Z,99.90
2018-07-08T23:14:21.077Z,99.90
2018-07-08T23:16:49.422Z,99.90
2018-07-08T23:19:18.096Z,99.90
2018-07-08T23:21:46.878Z,99.90
2018-07-08T23:24:15.112Z,99.90
2018-07-08T23:26:43.730Z,99.90
2018-07-08T23:29:12.051Z,99.90
2018-07-08T23:31:40.333Z,99.90
2018-07-08T23:34:08.565Z,99.90
2018-07-08T23:36:37.140Z,99.90
2018-07-08T23:39:05.620Z,99.90
2018-07-08T23:41:33.855Z,99.90
2018-07-08T23:44:02.931Z,99.90
2018-07-08T23:46:31.235Z,99.90
2018-07-08T23:48:59.495Z,99.90
2018-07-08T23:51:27.819Z,99.90
2018-07-08T23:53:56.599Z,99.90
2018-07-08T23:56:24.864Z,99.90
2018-07-08T23:58:53.118Z,99.90
